Time;durP1;ratioP1;P1;durP2;ratioP2;P2;SDS_P1;SDS_P2;PMS_P1;PMS_P2;Temp;Humidity;BMP_temperature;BMP_pressure;BME280_temperature;BME280_humidity;BME280_pressure;Samples;Min_cycle;Max_cycle;Signal;HPM_P1;HPM_P2
2022/12/26 00:01:59;;;;;;;0.60;0.60;;;10.00;99.90;;;;;;4937847;28;20072;-83
2022/12/26 00:04:25;;;;;;;0.50;0.50;;;10.00;99.90;;;;;;4954692;28;20522;-82
2022/12/26 00:06:51;;;;;;;0.60;0.60;;;10.00;99.90;;;;;;4945210;28;20053;-82
2022/12/26 00:09:17;;;;;;;0.60;0.60;;;10.10;99.90;;;;;;4950410;28;20057;-82
2022/12/26 00:11:43;;;;;;;0.60;0.60;;;10.00;99.90;;;;;;4929763;28;20041;-82
2022/12/26 00:14:22;;;;;;;0.50;0.50;;;10.10;99.90;;;;;;4946549;28;20076;-82
2022/12/26 00:16:47;;;;;;;0.50;0.50;;;10.10;99.90;;;;;;4945153;28;20951;-82
2022/12/26 00:19:13;;;;;;;0.60;0.60;;;10.10;99.90;;;;;;4945351;28;20049;-82
2022/12/26 00:21:39;;;;;;;0.50;0.50;;;10.10;99.90;;;;;;4936288;28;20408;-82
2022/12/26 00:24:06;;;;;;;0.50;0.50;;;10.10;99.90;;;;;;4941000;28;20243;-82
2022/12/26 00:26:34;;;;;;;0.50;0.50;;;10.00;99.90;;;;;;4949093;28;20049;-82
2022/12/26 00:29:01;;;;;;;0.50;0.50;;;10.00;99.90;;;;;;4942316;28;20550;-83
2022/12/26 00:31:31;;;;;;;0.60;0.60;;;10.00;99.90;;;;;;4953995;28;20036;-82
2022/12/26 00:33:58;;;;;;;0.50;0.50;;;10.10;99.90;;;;;;4949997;28;20307;-82
2022/12/26 00:36:28;;;;;;;0.60;0.60;;;10.00;99.90;;;;;;4938648;28;20052;-83
2022/12/26 00:38:54;;;;;;;0.50;0.50;;;10.10;99.90;;;;;;4953643;28;20143;-83
2022/12/26 00:41:21;;;;;;;0.50;0.50;;;10.00;99.90;;;;;;4945801;28;20045;-83
2022/12/26 00:43:47;;;;;;;0.50;0.50;;;10.00;99.90;;;;;;4928193;28;20077;-82
2022/12/26 00:46:14;;;;;;;0.50;0.50;;;10.00;99.90;;;;;;4951589;28;20071;-83
2022/12/26 00:48:40;;;;;;;0.50;0.50;;;10.00;99.90;;;;;;4925209;28;20155;-83
2022/12/26 00:51:06;;;;;;;0.60;0.60;;;10.00;99.90;;;;;;4947523;28;20763;-83
2022/12/26 00:53:32;;;;;;;0.50;0.50;;;10.00;99.90;;;;;;4918997;28;20481;-83
2022/12/26 00:55:58;;;;;;;0.50;0.50;;;9.90;99.90;;;;;;4958736;28;20056;-83
2022/12/26 00:58:28;;;;;;;0.50;0.50;;;10.00;99.90;;;;;;4941469;28;20190;-83
2022/12/26 01:00:55;;;;;;;0.50;0.50;;;10.00;99.90;;;;;;4933890;28;20041;-83
2022/12/26 01:03:21;;;;;;;0.50;0.50;;;10.10;99.90;;;;;;4928860;28;20437;-83
2022/12/26 01:05:49;;;;;;;0.50;0.50;;;10.00;99.90;;;;;;4923223;28;20045;-83
2022/12/26 01:08:17;;;;;;;0.50;0.50;;;10.10;99.90;;;;;;4932961;28;20053;-83
2022/12/26 01:10:45;;;;;;;0.50;0.50;;;10.10;99.90;;;;;;4937111;28;20049;-83
2022/12/26 01:13:11;;;;;;;0.50;0.50;;;10.10;99.90;;;;;;4938701;28;20045;-83
2022/12/26 01:15:37;;;;;;;0.50;0.50;;;10.00;99.90;;;;;;4951529;28;20041;-83
2022/12/26 01:18:03;;;;;;;0.50;0.50;;;10.10;99.90;;;;;;4942570;28;21043;-83
2022/12/26 01:20:29;;;;;;;0.50;0.50;;;10.10;99.90;;;;;;4942319;28;20057;-83
2022/12/26 01:22:55;;;;;;;0.50;0.50;;;10.10;99.90;;;;;;4926165;28;20049;-83
2022/12/26 01:25:22;;;;;;;0.60;0.60;;;10.10;99.90;;;;;;4934797;28;20045;-83
2022/12/26 01:27:48;;;;;;;0.50;0.50;;;10.10;99.90;;;;;;4946411;28;20242;-82
2022/12/26 01:30:14;;;;;;;0.55;0.55;;;10.20;99.90;;;;;;4938666;28;20053;-84
2022/12/26 01:32:40;;;;;;;0.50;0.50;;;10.10;99.90;;;;;;4937892;28;20080;-83
2022/12/26 01:35:10;;;;;;;0.60;0.60;;;10.10;99.90;;;;;;4939437;28;20068;-83
2022/12/26 01:37:36;;;;;;;0.50;0.50;;;10.10;99.90;;;;;;4940935;28;20943;-83
2022/12/26 01:40:02;;;;;;;0.50;0.50;;;10.20;99.90;;;;;;4944767;28;20123;-83
2022/12/26 01:42:37;;;;;;;0.50;0.50;;;10.10;99.90;;;;;;4931246;28;20215;-83
2022/12/26 01:45:21;;;;;;;0.50;0.50;;;10.10;99.90;;;;;;4926265;28;20749;-83
2022/12/26 01:48:16;;;;;;;0.50;0.50;;;10.20;99.90;;;;;;4950026;28;20461;-84
2022/12/26 01:50:46;;;;;;;0.50;0.50;;;10.20;99.90;;;;;;4938410;28;20103;-83
2022/12/26 01:53:31;;;;;;;0.50;0.50;;;10.20;99.90;;;;;;4949975;28;20128;-83
2022/12/26 01:56:16;;;;;;;0.60;0.60;;;10.10;99.90;;;;;;4945626;28;20561;-84
2022/12/26 01:58:51;;;;;;;0.50;0.50;;;10.20;99.90;;;;;;4942235;28;20052;-84
2022/12/26 02:01:18;;;;;;;0.60;0.60;;;10.20;99.90;;;;;;4940964;28;20084;-83
2022/12/26 02:06:30;;;;;;;0.50;0.50;;;10.10;99.90;;;;;;4947898;28;20057;-84
2022/12/26 02:08:57;;;;;;;0.60;0.60;;;10.20;99.90;;;;;;4938763;28;20045;-83
2022/12/26 02:11:38;;;;;;;0.50;0.50;;;10.20;99.90;;;;;;4920926;28;20061;-83
2022/12/26 02:14:06;;;;;;;0.52;0.52;;;10.20;99.90;;;;;;4929401;28;20064;-84
2022/12/26 02:16:34;;;;;;;0.60;0.60;;;10.20;99.90;;;;;;4923472;28;20088;-84
2022/12/26 02:19:00;;;;;;;0.60;0.60;;;10.10;99.90;;;;;;4930683;28;20132;-83
2022/12/26 02:21:46;;;;;;;0.60;0.60;;;10.20;99.90;;;;;;4943982;28;20045;-83
2022/12/26 02:24:40;;;;;;;0.50;0.50;;;10.20;99.90;;;;;;4950777;28;20057;-83
2022/12/26 02:27:21;;;;;;;0.60;0.60;;;10.20;99.90;;;;;;4938675;28;20045;-84
2022/12/26 02:30:26;;;;;;;0.50;0.50;;;10.20;99.90;;;;;;4947482;28;20073;-83
2022/12/26 02:33:19;;;;;;;0.60;0.60;;;10.20;99.90;;;;;;4938621;28;20210;-83
2022/12/26 02:36:13;;;;;;;0.60;0.60;;;10.20;99.90;;;;;;4948882;28;20420;-84
2022/12/26 02:39:04;;;;;;;0.60;0.60;;;10.30;99.90;;;;;;4942328;28;20056;-83
2022/12/26 02:41:44;;;;;;;0.50;0.50;;;10.30;99.90;;;;;;4932068;28;20518;-84
2022/12/26 02:47:53;;;;;;;0.50;0.50;;;10.30;99.90;;;;;;4941871;28;20404;-84
2022/12/26 03:14:31;;;;;;;0.60;0.60;;;10.40;99.90;;;;;;4940176;28;20892;-82
2022/12/26 03:17:19;;;;;;;0.52;0.52;;;10.40;99.90;;;;;;4937820;28;20069;-83
2022/12/26 03:20:02;;;;;;;0.50;0.50;;;10.40;99.90;;;;;;4938250;28;20053;-83
2022/12/26 03:22:40;;;;;;;0.60;0.60;;;10.30;99.90;;;;;;4942991;28;20375;-82
2022/12/26 03:28:28;;;;;;;0.50;0.50;;;10.30;99.90;;;;;;4942448;28;20128;-82
2022/12/26 03:30:58;;;;;;;0.60;0.60;;;10.30;99.90;;;;;;4945219;28;20135;-83
2022/12/26 03:36:38;;;;;;;0.60;0.60;;;10.40;99.90;;;;;;4945368;28;20444;-82
2022/12/26 04:20:52;;;;;;;0.60;0.60;;;10.30;99.90;;;;;;4942561;28;20076;-83
2022/12/26 04:44:11;;;;;;;0.50;0.50;;;10.40;99.90;;;;;;4877027;28;20046;-84
2022/12/26 04:46:47;;;;;;;0.60;0.60;;;10.40;99.90;;;;;;4874413;28;20164;-82
2022/12/26 04:52:08;;;;;;;0.60;0.60;;;10.40;99.90;;;;;;4937635;28;20464;-83
2022/12/26 04:54:35;;;;;;;0.60;0.60;;;10.30;99.90;;;;;;4953306;28;20503;-82
2022/12/26 04:57:01;;;;;;;0.60;0.60;;;10.40;99.90;;;;;;4941718;28;20037;-82
2022/12/26 04:59:27;;;;;;;0.60;0.60;;;10.30;99.90;;;;;;4949711;28;20040;-86
2022/12/26 05:10:21;;;;;;;0.60;0.60;;;10.20;99.90;;;;;;4940074;28;20056;-84
2022/12/26 05:12:47;;;;;;;0.50;0.50;;;10.20;99.90;;;;;;4939631;28;20299;-85
2022/12/26 05:15:14;;;;;;;0.60;0.60;;;10.20;99.90;;;;;;4939294;28;20048;-83
2022/12/26 05:29:07;;;;;;;0.60;0.60;;;10.00;99.90;;;;;;4936951;28;20425;-82
2022/12/26 05:31:33;;;;;;;0.60;0.60;;;10.00;99.90;;;;;;4940870;28;20040;-83
2022/12/26 05:34:14;;;;;;;0.60;0.60;;;10.00;99.90;;;;;;4942651;28;20114;-83
2022/12/26 05:36:51;;;;;;;0.55;0.55;;;9.90;99.90;;;;;;4940426;28;20523;-83
2022/12/26 05:39:17;;;;;;;0.50;0.50;;;9.80;99.90;;;;;;4938031;28;20447;-83
2022/12/26 05:41:43;;;;;;;0.60;0.60;;;9.80;99.90;;;;;;4938682;28;21826;-84
2022/12/26 05:44:10;;;;;;;0.60;0.60;;;9.70;99.90;;;;;;4946801;28;20057;-84
2022/12/26 05:46:37;;;;;;;0.50;0.50;;;9.60;99.90;;;;;;4946952;28;20056;-82
2022/12/26 05:49:04;;;;;;;0.50;0.50;;;9.80;99.90;;;;;;4945312;28;20053;-84
2022/12/26 05:51:30;;;;;;;0.50;0.50;;;9.70;99.90;;;;;;4941233;28;20041;-83
2022/12/26 05:53:56;;;;;;;0.60;0.60;;;9.70;99.90;;;;;;4946052;28;20526;-83
2022/12/26 05:56:23;;;;;;;0.60;0.60;;;9.70;99.90;;;;;;4951379;28;20045;-84
2022/12/26 05:59:01;;;;;;;0.50;0.50;;;9.70;99.90;;;;;;4938814;28;20053;-84
2022/12/26 06:01:28;;;;;;;0.60;0.60;;;9.80;99.90;;;;;;4945432;28;20089;-83
2022/12/26 06:03:56;;;;;;;0.60;0.60;;;9.80;99.90;;;;;;4951307;28;20508;-83
2022/12/26 06:06:24;;;;;;;0.50;0.50;;;9.70;99.90;;;;;;4929225;28;20531;-84
2022/12/26 06:08:52;;;;;;;0.50;0.50;;;9.70;99.90;;;;;;4953704;28;20216;-82
2022/12/26 06:11:19;;;;;;;0.50;0.50;;;9.70;99.90;;;;;;4955627;28;20473;-84
2022/12/26 06:13:45;;;;;;;0.50;0.50;;;9.60;99.90;;;;;;4940088;28;20153;-83
2022/12/26 06:16:14;;;;;;;0.60;0.60;;;9.60;99.90;;;;;;4947328;28;20037;-83
2022/12/26 06:18:40;;;;;;;0.50;0.50;;;9.60;99.90;;;;;;4935913;28;20428;-84
2022/12/26 06:21:08;;;;;;;0.50;0.50;;;9.60;99.90;;;;;;4946297;28;20458;-82
2022/12/26 06:23:35;;;;;;;0.50;0.50;;;9.60;99.90;;;;;;4946287;28;20126;-83
2022/12/26 06:26:01;;;;;;;0.50;0.50;;;9.70;99.90;;;;;;4956391;28;20048;-83
2022/12/26 06:28:27;;;;;;;0.60;0.60;;;9.60;99.90;;;;;;4928205;28;20049;-82
2022/12/26 06:30:53;;;;;;;0.50;0.50;;;9.70;99.90;;;;;;4945659;28;20049;-83
2022/12/26 06:33:19;;;;;;;0.50;0.50;;;9.60;99.90;;;;;;4925602;28;20057;-82
2022/12/26 06:35:45;;;;;;;0.50;0.50;;;9.50;99.90;;;;;;4948455;28;20057;-83
2022/12/26 06:38:11;;;;;;;0.50;0.50;;;9.50;99.90;;;;;;4914001;28;20052;-84
2022/12/26 06:40:39;;;;;;;0.50;0.50;;;9.40;99.90;;;;;;4930429;28;20038;-83
2022/12/26 06:43:06;;;;;;;0.50;0.50;;;9.50;99.90;;;;;;4948928;28;20123;-84
2022/12/26 06:45:32;;;;;;;0.60;0.60;;;9.40;99.90;;;;;;4936828;28;20132;-82
2022/12/26 06:47:58;;;;;;;0.50;0.50;;;9.40;99.90;;;;;;4946499;28;20041;-82
2022/12/26 06:50:25;;;;;;;0.50;0.50;;;9.50;99.90;;;;;;4952175;28;20049;-82
2022/12/26 06:52:50;;;;;;;0.50;0.50;;;9.40;99.90;;;;;;4957457;28;20290;-83
2022/12/26 06:55:16;;;;;;;0.50;0.50;;;9.40;99.90;;;;;;4953896;28;20053;-84
2022/12/26 06:57:45;;;;;;;0.50;0.50;;;9.40;99.90;;;;;;4948520;28;20517;-83
2022/12/26 07:00:14;;;;;;;0.50;0.50;;;9.40;99.90;;;;;;4935141;28;20046;-82
2022/12/26 07:02:39;;;;;;;0.50;0.50;;;9.40;99.90;;;;;;4948652;28;20083;-82
2022/12/26 07:05:05;;;;;;;0.57;0.57;;;9.30;99.90;;;;;;4945856;28;20466;-83
2022/12/26 07:07:31;;;;;;;0.50;0.50;;;9.30;99.90;;;;;;4929842;28;20049;-83
2022/12/26 07:09:57;;;;;;;0.50;0.50;;;9.30;99.90;;;;;;4952442;28;20037;-83
2022/12/26 07:12:24;;;;;;;0.60;0.60;;;9.30;99.90;;;;;;4944812;28;20676;-84
2022/12/26 07:14:49;;;;;;;0.60;0.60;;;9.20;99.90;;;;;;4946598;28;20053;-82
2022/12/26 07:17:15;;;;;;;0.60;0.60;;;9.30;99.90;;;;;;4915792;28;20057;-84
2022/12/26 07:19:41;;;;;;;0.60;0.60;;;9.10;99.90;;;;;;4948868;28;20403;-82
2022/12/26 07:22:07;;;;;;;0.50;0.50;;;9.20;99.90;;;;;;4946076;28;20577;-84
2022/12/26 07:24:33;;;;;;;0.60;0.60;;;9.30;99.90;;;;;;4914511;28;20072;-82
2022/12/26 07:26:59;;;;;;;0.50;0.50;;;9.10;99.90;;;;;;4909748;28;20080;-83
2022/12/26 07:29:25;;;;;;;0.50;0.50;;;9.10;99.90;;;;;;4931239;28;20055;-83
2022/12/26 07:31:51;;;;;;;0.50;0.50;;;9.10;99.90;;;;;;4947350;28;20045;-82
2022/12/26 07:34:17;;;;;;;0.50;0.50;;;9.00;99.90;;;;;;4927254;28;20065;-83
2022/12/26 07:36:43;;;;;;;0.50;0.50;;;9.10;99.90;;;;;;4942616;28;20156;-82
2022/12/26 07:39:12;;;;;;;0.60;0.60;;;9.00;99.90;;;;;;4929591;28;20275;-83
2022/12/26 07:41:57;;;;;;;0.60;0.60;;;9.00;99.90;;;;;;4949821;28;20059;-84
2022/12/26 07:44:29;;;;;;;0.50;0.50;;;9.10;99.90;;;;;;4937532;28;20067;-84
2022/12/26 07:46:57;;;;;;;0.57;0.57;;;9.10;99.90;;;;;;4950863;28;20140;-84
2022/12/26 07:49:23;;;;;;;0.50;0.50;;;9.00;99.90;;;;;;4946186;28;20049;-84
2022/12/26 07:51:50;;;;;;;0.50;0.50;;;9.10;99.90;;;;;;4944769;28;20875;-84
2022/12/26 07:54:16;;;;;;;0.50;0.50;;;9.00;99.90;;;;;;4949929;28;20052;-82
2022/12/26 07:56:42;;;;;;;0.50;0.50;;;9.00;99.90;;;;;;4948124;28;20049;-83
2022/12/26 07:59:15;;;;;;;0.50;0.50;;;9.00;99.90;;;;;;4931925;28;20542;-84
2022/12/26 08:01:42;;;;;;;0.60;0.60;;;9.00;99.90;;;;;;4944330;28;20144;-83
2022/12/26 08:04:10;;;;;;;0.60;0.60;;;9.00;99.90;;;;;;4948755;28;20483;-82
2022/12/26 08:06:36;;;;;;;0.60;0.60;;;9.00;99.90;;;;;;4957098;28;20049;-83
2022/12/26 08:09:02;;;;;;;0.50;0.50;;;9.00;99.90;;;;;;4945756;28;20067;-84
2022/12/26 08:11:32;;;;;;;0.50;0.50;;;9.10;99.90;;;;;;4946278;28;20180;-85
2022/12/26 08:13:58;;;;;;;0.50;0.50;;;9.10;99.90;;;;;;4943184;28;20338;-83
2022/12/26 08:16:24;;;;;;;0.50;0.50;;;9.10;99.90;;;;;;4952369;28;20168;-83
2022/12/26 08:18:50;;;;;;;0.50;0.50;;;9.10;99.90;;;;;;4931029;28;20049;-84
2022/12/26 08:21:16;;;;;;;0.50;0.50;;;9.10;99.90;;;;;;4949377;28;20812;-83
2022/12/26 08:23:42;;;;;;;0.50;0.50;;;9.20;99.90;;;;;;4945077;28;20052;-83
2022/12/26 08:26:10;;;;;;;0.50;0.50;;;9.30;99.90;;;;;;4955066;28;20048;-82
2022/12/26 08:28:38;;;;;;;0.50;0.50;;;9.30;99.90;;;;;;4941831;28;20135;-83
2022/12/26 08:31:06;;;;;;;0.55;0.55;;;9.20;99.90;;;;;;4935295;28;20110;-82
2022/12/26 08:33:35;;;;;;;0.60;0.60;;;9.30;99.90;;;;;;4955436;28;20052;-81
2022/12/26 08:36:03;;;;;;;0.50;0.50;;;9.30;99.90;;;;;;4934628;28;20469;-85
2022/12/26 08:38:29;;;;;;;0.50;0.50;;;9.30;99.90;;;;;;4954053;28;20080;-83
2022/12/26 08:40:55;;;;;;;0.50;0.50;;;9.40;99.90;;;;;;4945784;28;20045;-83
2022/12/26 08:43:23;;;;;;;0.60;0.60;;;9.40;99.90;;;;;;4947517;28;20049;-82
2022/12/26 08:46:04;;;;;;;0.50;0.50;;;9.40;99.90;;;;;;4950255;28;21007;-82
2022/12/26 08:48:31;;;;;;;0.60;0.60;;;9.40;99.90;;;;;;4944972;28;20508;-83
2022/12/26 08:51:15;;;;;;;0.50;0.50;;;9.50;99.90;;;;;;4945552;28;20119;-83
2022/12/26 08:53:42;;;;;;;0.50;0.50;;;9.60;99.90;;;;;;4944371;28;20053;-84
2022/12/26 08:56:11;;;;;;;0.50;0.50;;;9.70;99.90;;;;;;4952607;28;20045;-84
2022/12/26 08:58:37;;;;;;;0.50;0.50;;;9.70;99.90;;;;;;4945059;28;20055;-85
2022/12/26 09:01:11;;;;;;;0.50;0.50;;;9.80;99.90;;;;;;4915181;28;20045;-83
2022/12/26 09:03:38;;;;;;;0.50;0.50;;;10.00;99.90;;;;;;4959551;28;20393;-83
2022/12/26 09:06:04;;;;;;;0.50;0.50;;;10.00;99.90;;;;;;4917489;28;20048;-83
2022/12/26 09:08:33;;;;;;;0.50;0.50;;;10.10;99.90;;;;;;4947294;28;20106;-84
2022/12/26 09:11:02;;;;;;;0.57;0.57;;;10.20;99.90;;;;;;4930091;28;20057;-84
2022/12/26 09:13:29;;;;;;;0.50;0.50;;;10.30;99.90;;;;;;4931831;28;20749;-83
2022/12/26 09:15:54;;;;;;;0.57;0.57;;;10.20;99.90;;;;;;4933985;28;20557;-83
2022/12/26 09:18:20;;;;;;;0.60;0.60;;;10.30;99.90;;;;;;4929419;28;20049;-84
2022/12/26 09:20:46;;;;;;;0.50;0.50;;;10.20;99.90;;;;;;4933735;28;20383;-83
2022/12/26 09:23:14;;;;;;;0.60;0.60;;;10.40;99.90;;;;;;4929211;28;20570;-84
2022/12/26 09:25:40;;;;;;;0.60;0.60;;;10.40;99.90;;;;;;4947087;28;20329;-82
2022/12/26 09:28:06;;;;;;;0.50;0.50;;;10.50;99.90;;;;;;4945027;28;20053;-84
2022/12/26 09:30:32;;;;;;;0.50;0.50;;;10.70;99.90;;;;;;4931817;28;20100;-83
2022/12/26 09:32:58;;;;;;;0.50;0.50;;;10.70;99.90;;;;;;4945346;28;20465;-84
2022/12/26 09:35:24;;;;;;;0.60;0.60;;;10.60;99.90;;;;;;4922791;28;20061;-84
2022/12/26 09:37:51;;;;;;;0.60;0.60;;;10.60;99.90;;;;;;4935235;28;20079;-83
2022/12/26 09:40:23;;;;;;;0.60;0.60;;;10.60;99.90;;;;;;4937440;28;20565;-83
2022/12/26 09:43:15;;;;;;;5.40;4.95;;;10.70;99.90;;;;;;4928169;28;21164;-85
2022/12/26 09:45:57;;;;;;;0.50;0.50;;;10.70;99.90;;;;;;4936590;28;20134;-81
2022/12/26 09:48:36;;;;;;;0.50;0.50;;;10.70;99.90;;;;;;4943508;28;20052;-82
2022/12/26 09:51:03;;;;;;;0.60;0.60;;;10.60;99.90;;;;;;4946951;28;20529;-84
2022/12/26 09:53:33;;;;;;;0.50;0.50;;;10.60;99.90;;;;;;4931768;28;20087;-84
2022/12/26 09:56:11;;;;;;;0.50;0.50;;;10.70;99.90;;;;;;4942459;28;20060;-85
2022/12/26 09:58:53;;;;;;;0.50;0.50;;;10.70;99.90;;;;;;4929335;28;20119;-82
2022/12/26 10:01:32;;;;;;;0.50;0.50;;;10.70;99.90;;;;;;4928277;28;20049;-84
2022/12/26 10:03:59;;;;;;;0.50;0.50;;;10.60;99.90;;;;;;4941562;28;20053;-84
2022/12/26 10:06:33;;;;;;;0.50;0.50;;;10.70;99.90;;;;;;4940607;28;20084;-85
2022/12/26 10:09:31;;;;;;;0.50;0.50;;;10.70;99.90;;;;;;4918926;28;20816;-82
2022/12/26 10:12:47;;;;;;;0.50;0.50;;;10.80;99.90;;;;;;4928496;28;20053;-84
2022/12/26 10:15:24;;;;;;;0.50;0.50;;;10.80;99.90;;;;;;4907523;28;20450;-83
2022/12/26 10:18:13;;;;;;;0.50;0.50;;;10.80;99.90;;;;;;4943600;28;20170;-83
2022/12/26 10:20:45;;;;;;;0.50;0.50;;;10.80;99.90;;;;;;4943975;28;20059;-84
2022/12/26 10:23:15;;;;;;;0.50;0.50;;;10.70;99.90;;;;;;4940896;28;20052;-85
2022/12/26 10:26:07;;;;;;;0.50;0.50;;;10.70;99.90;;;;;;4927105;28;20435;-83
2022/12/26 10:28:42;;;;;;;0.50;0.50;;;10.70;99.90;;;;;;4932536;28;20096;-82
2022/12/26 10:31:44;;;;;;;0.50;0.50;;;10.70;99.90;;;;;;4934349;28;20469;-81
2022/12/26 10:34:27;;;;;;;0.60;0.60;;;10.60;99.90;;;;;;4946313;28;20060;-86
2022/12/26 10:37:16;;;;;;;0.50;0.50;;;10.60;99.90;;;;;;4940402;28;20077;-84
2022/12/26 10:39:47;;;;;;;0.60;0.60;;;10.60;99.90;;;;;;4924493;28;20468;-82
2022/12/26 10:42:24;;;;;;;0.52;0.52;;;10.30;99.90;;;;;;4940640;28;20522;-82
2022/12/26 10:44:50;;;;;;;0.60;0.60;;;10.20;99.90;;;;;;4946945;28;20143;-80
2022/12/26 10:47:32;;;;;;;0.60;0.60;;;10.00;99.90;;;;;;4935946;28;20063;-83
2022/12/26 10:49:58;;;;;;;0.60;0.60;;;9.70;99.90;;;;;;4936658;28;20049;-83
2022/12/26 10:52:32;;;;;;;0.55;0.55;;;9.60;99.90;;;;;;4927534;28;20945;-83
2022/12/26 10:54:59;;;;;;;0.60;0.60;;;9.50;99.90;;;;;;4940959;28;20856;-82
2022/12/26 10:57:34;;;;;;;0.60;0.60;;;9.30;99.90;;;;;;4941965;28;20286;-82
2022/12/26 11:00:03;;;;;;;0.60;0.60;;;9.30;99.90;;;;;;4939190;28;20152;-81
2022/12/26 11:02:31;;;;;;;0.60;0.60;;;9.40;99.90;;;;;;4944057;28;20129;-84
2022/12/26 11:05:09;;;;;;;0.50;0.50;;;9.50;99.90;;;;;;4948810;28;20656;-81
2022/12/26 11:08:10;;;;;;;0.50;0.50;;;9.60;99.90;;;;;;4946708;28;20041;-82
2022/12/26 11:10:36;;;;;;;0.60;0.60;;;9.60;99.90;;;;;;4935376;28;20057;-82
2022/12/26 11:13:07;;;;;;;0.50;0.50;;;9.70;99.90;;;;;;4945652;28;20130;-80
2022/12/26 11:15:50;;;;;;;0.50;0.50;;;9.60;99.90;;;;;;4941150;28;20786;-81
2022/12/26 11:18:18;;;;;;;0.57;0.57;;;9.60;99.90;;;;;;4921015;28;20540;-81
2022/12/26 11:20:46;;;;;;;0.60;0.60;;;9.60;99.90;;;;;;4944288;28;20522;-82
2022/12/26 11:23:33;;;;;;;0.60;0.60;;;9.60;99.90;;;;;;4939533;28;20072;-81
2022/12/26 11:26:01;;;;;;;0.50;0.50;;;9.50;99.90;;;;;;4938287;28;20054;-82
2022/12/26 11:28:33;;;;;;;0.50;0.50;;;9.60;99.90;;;;;;4958986;28;20553;-83
2022/12/26 11:31:06;;;;;;;0.50;0.50;;;9.50;99.90;;;;;;4948580;28;20465;-85
2022/12/26 11:33:41;;;;;;;0.50;0.50;;;9.40;99.90;;;;;;4949601;28;20057;-84
2022/12/26 11:36:20;;;;;;;0.50;0.50;;;9.40;99.90;;;;;;4947375;28;20498;-82
2022/12/26 11:38:49;;;;;;;0.50;0.50;;;9.20;99.90;;;;;;4934497;28;20045;-83
2022/12/26 11:41:38;;;;;;;0.55;0.55;;;9.10;99.90;;;;;;4935519;28;20041;-82
2022/12/26 11:44:08;;;;;;;0.60;0.60;;;9.10;99.90;;;;;;4943044;28;20176;-83
2022/12/26 11:47:06;;;;;;;0.60;0.60;;;9.20;99.90;;;;;;4955879;28;20057;-83
2022/12/26 11:49:46;;;;;;;0.60;0.60;;;9.00;99.90;;;;;;4943164;28;20106;-79
2022/12/26 11:52:39;;;;;;;0.60;0.60;;;9.00;99.90;;;;;;4941941;28;20512;-77
2022/12/26 11:55:26;;;;;;;0.60;0.60;;;8.90;99.90;;;;;;4940999;28;20072;-79
2022/12/26 11:58:08;;;;;;;0.60;0.60;;;8.90;99.90;;;;;;4939552;28;20208;-83
2022/12/26 12:00:42;;;;;;;0.60;0.60;;;8.80;99.90;;;;;;4936409;28;20897;-85
2022/12/26 12:03:40;;;;;;;0.60;0.60;;;8.80;99.90;;;;;;4964814;28;20512;-83
2022/12/26 12:06:15;;;;;;;0.60;0.60;;;8.80;99.90;;;;;;4939546;28;20067;-82
2022/12/26 12:08:59;;;;;;;0.60;0.60;;;8.80;99.90;;;;;;4940784;28;20566;-82
2022/12/26 12:11:55;;;;;;;0.60;0.60;;;8.80;99.90;;;;;;4946162;28;20435;-82
2022/12/26 12:14:59;;;;;;;0.50;0.50;;;8.80;99.90;;;;;;4947860;28;20053;-81
2022/12/26 12:17:46;;;;;;;0.60;0.60;;;8.80;99.90;;;;;;4939816;28;20049;-82
2022/12/26 12:20:25;;;;;;;0.60;0.60;;;8.80;99.90;;;;;;4949730;28;20060;-82
2022/12/26 12:23:17;;;;;;;0.50;0.50;;;8.80;99.90;;;;;;4943545;28;20054;-83
2022/12/26 12:26:02;;;;;;;0.60;0.60;;;8.90;99.90;;;;;;4940380;28;20611;-82
2022/12/26 12:28:55;;;;;;;0.50;0.50;;;8.90;99.90;;;;;;4939838;28;20041;-82
2022/12/26 12:31:59;;;;;;;0.50;0.50;;;8.70;99.90;;;;;;4951903;28;20084;-83
2022/12/26 12:34:31;;;;;;;0.50;0.50;;;8.60;99.90;;;;;;4946797;28;20057;-83
2022/12/26 12:37:15;;;;;;;0.50;0.50;;;8.60;99.90;;;;;;4943455;28;20797;-82
2022/12/26 12:39:44;;;;;;;0.60;0.60;;;8.60;99.90;;;;;;4951214;28;20120;-83
2022/12/26 12:42:45;;;;;;;0.60;0.60;;;8.60;99.90;;;;;;4948090;28;20060;-82
2022/12/26 12:45:43;;;;;;;0.52;0.52;;;8.60;99.90;;;;;;4946912;28;20059;-83
2022/12/26 12:48:31;;;;;;;0.50;0.50;;;8.60;99.90;;;;;;4941498;28;20315;-83
2022/12/26 12:51:19;;;;;;;0.60;0.60;;;8.50;99.90;;;;;;4941873;28;20387;-81
2022/12/26 12:54:20;;;;;;;0.60;0.60;;;8.50;99.90;;;;;;4926076;28;21082;-81
2022/12/26 12:57:12;;;;;;;0.60;0.60;;;8.50;99.90;;;;;;4946629;28;20049;-80
2022/12/26 12:59:50;;;;;;;0.50;0.50;;;8.70;99.90;;;;;;4946397;28;20275;-82
2022/12/26 13:02:31;;;;;;;0.60;0.60;;;8.60;99.90;;;;;;4925842;28;21269;-80
2022/12/26 13:05:23;;;;;;;0.60;0.60;;;8.40;99.90;;;;;;4941888;28;20463;-83
2022/12/26 13:07:56;;;;;;;0.60;0.60;;;8.40;99.90;;;;;;4917951;28;20520;-82
2022/12/26 13:10:29;;;;;;;0.60;0.60;;;8.20;99.90;;;;;;4939051;28;20838;-83
2022/12/26 13:12:56;;;;;;;0.50;0.50;;;8.10;99.90;;;;;;4951671;28;20095;-82
2022/12/26 13:15:32;;;;;;;0.55;0.55;;;8.00;99.90;;;;;;4946105;28;20049;-82
2022/12/26 13:18:24;;;;;;;0.50;0.50;;;7.90;99.90;;;;;;4931737;28;20861;-83
2022/12/26 13:20:59;;;;;;;0.60;0.60;;;7.90;99.90;;;;;;4964408;28;20059;-82
2022/12/26 13:26:26;;;;;;;0.60;0.60;;;7.90;99.90;;;;;;4952778;28;20056;-81
2022/12/26 13:29:03;;;;;;;0.60;0.60;;;7.80;99.90;;;;;;4942921;28;20048;-82
2022/12/26 13:31:37;;;;;;;0.60;0.60;;;7.70;99.90;;;;;;4951317;28;20414;-83
2022/12/26 13:34:07;;;;;;;0.60;0.60;;;7.70;99.90;;;;;;4933658;28;20572;-81
2022/12/26 13:36:41;;;;;;;0.60;0.60;;;7.80;99.90;;;;;;4960094;28;20072;-83
2022/12/26 13:39:14;;;;;;;0.60;0.60;;;7.70;99.90;;;;;;4945495;28;20160;-80
2022/12/26 13:45:36;;;;;;;0.60;0.60;;;7.60;99.90;;;;;;4947704;28;20053;-82
2022/12/26 13:48:11;;;;;;;0.60;0.60;;;7.50;99.90;;;;;;4948444;28;20068;-82
2022/12/26 13:50:52;;;;;;;0.60;0.60;;;7.50;99.90;;;;;;4952028;28;20049;-82
2022/12/26 13:53:24;;;;;;;0.60;0.60;;;7.40;99.90;;;;;;4941628;28;20130;-83
2022/12/26 13:55:58;;;;;;;0.60;0.60;;;7.40;99.90;;;;;;4947665;28;20053;-82
2022/12/26 13:58:52;;;;;;;0.60;0.60;;;7.40;99.90;;;;;;4947474;28;20124;-82
2022/12/26 14:01:30;;;;;;;0.50;0.50;;;7.40;99.90;;;;;;4951574;28;20454;-82
2022/12/26 14:04:24;;;;;;;0.60;0.60;;;7.40;99.90;;;;;;4956995;28;20417;-81
2022/12/26 14:07:09;;;;;;;0.60;0.60;;;7.40;99.90;;;;;;4942515;28;20384;-81
2022/12/26 14:09:50;;;;;;;0.60;0.60;;;7.40;99.90;;;;;;4955900;28;20087;-81
2022/12/26 14:12:31;;;;;;;0.50;0.50;;;7.40;99.90;;;;;;4949130;28;20489;-81
2022/12/26 14:14:57;;;;;;;0.60;0.60;;;7.50;99.90;;;;;;4956048;28;20080;-81
2022/12/26 14:18:00;;;;;;;0.60;0.60;;;7.50;99.90;;;;;;4962970;28;20057;-81
2022/12/26 14:20:45;;;;;;;0.60;0.60;;;7.50;99.90;;;;;;4961540;28;20060;-81
2022/12/26 14:23:36;;;;;;;0.60;0.60;;;7.60;99.90;;;;;;4944693;28;20592;-82
2022/12/26 14:26:20;;;;;;;0.60;0.60;;;7.50;99.90;;;;;;4955846;28;20136;-82
2022/12/26 14:29:01;;;;;;;0.60;0.60;;;7.50;99.90;;;;;;4950849;28;20135;-81
2022/12/26 14:31:55;;;;;;;0.55;0.55;;;7.40;99.90;;;;;;4948671;28;20231;-84
2022/12/26 14:34:45;;;;;;;0.60;0.60;;;7.20;99.90;;;;;;4953640;28;20647;-83
2022/12/26 14:37:53;;;;;;;0.60;0.60;;;7.10;99.90;;;;;;4941358;28;20115;-81
2022/12/26 14:40:37;;;;;;;0.60;0.60;;;7.10;99.90;;;;;;4921059;28;20061;-81
2022/12/26 14:43:10;;;;;;;0.60;0.60;;;7.10;99.90;;;;;;4942073;28;20468;-81
2022/12/26 14:45:38;;;;;;;0.60;0.60;;;7.00;99.90;;;;;;4943943;28;20045;-81
2022/12/26 14:48:14;;;;;;;0.60;0.60;;;7.00;99.90;;;;;;4942322;28;20296;-82
2022/12/26 14:50:45;;;;;;;0.57;0.57;;;7.00;99.90;;;;;;4938423;28;20955;-82
2022/12/26 14:53:31;;;;;;;0.60;0.60;;;6.90;99.90;;;;;;4944993;28;20042;-82
2022/12/26 14:56:16;;;;;;;0.60;0.60;;;6.80;99.90;;;;;;4950765;28;20049;-82
2022/12/26 14:58:45;;;;;;;0.60;0.60;;;6.80;99.90;;;;;;4957918;28;20088;-81
2022/12/26 15:01:14;;;;;;;0.60;0.60;;;6.70;99.90;;;;;;4974586;28;20053;-82
2022/12/26 15:04:15;;;;;;;0.50;0.50;;;6.70;99.90;;;;;;4950496;28;20248;-82
2022/12/26 15:06:54;;;;;;;0.60;0.60;;;6.60;99.90;;;;;;4947235;28;20052;-82
2022/12/26 15:09:40;;;;;;;0.60;0.60;;;6.50;99.90;;;;;;4974560;28;20055;-84
2022/12/26 15:12:18;;;;;;;0.60;0.60;;;6.50;99.90;;;;;;4950844;28;20049;-83
2022/12/26 15:15:08;;;;;;;0.60;0.60;;;6.40;99.90;;;;;;4957847;28;20080;-82
2022/12/26 15:18:01;;;;;;;0.60;0.60;;;6.40;99.90;;;;;;4962868;28;20033;-82
2022/12/26 15:20:49;;;;;;;0.60;0.60;;;6.40;99.90;;;;;;4940950;28;20115;-81
2022/12/26 15:23:30;;;;;;;0.60;0.60;;;6.40;99.90;;;;;;4942280;28;20618;-82
2022/12/26 15:26:08;;;;;;;0.60;0.60;;;6.40;99.90;;;;;;4950036;28;20262;-82
2022/12/26 15:28:52;;;;;;;0.50;0.50;;;6.40;99.90;;;;;;4958714;28;20053;-82
2022/12/26 15:31:56;;;;;;;0.60;0.60;;;6.40;99.90;;;;;;4946021;28;20651;-82
2022/12/26 15:34:47;;;;;;;0.60;0.60;;;6.30;99.90;;;;;;4959256;28;20562;-84
2022/12/26 15:37:16;;;;;;;0.60;0.60;;;6.20;99.90;;;;;;4929579;28;20057;-83
2022/12/26 15:40:16;;;;;;;0.60;0.60;;;6.20;99.90;;;;;;4933148;28;20583;-82